Time;durP1;ratioP1;P1;durP2;ratioP2;P2;SDS_P1;SDS_P2;PMS_P1;PMS_P2;Temp;Humidity;BMP_temperature;BMP_pressure;BME280_temperature;BME280_humidity;BME280_pressure;Samples;Min_cycle;Max_cycle;Signal;HPM_P1;HPM_P2
2021/05/11 00:00:31;;;;;;;1.17;0.77;;;15.70;87.30;;;;;;5112815;27;27402;-65
2021/05/11 00:03:16;;;;;;;0.60;0.60;;;15.70;86.90;;;;;;5125240;27;27624;-65
2021/05/11 00:06:00;;;;;;;1.70;0.93;;;15.70;86.60;;;;;;5125567;27;26998;-66
2021/05/11 00:08:44;;;;;;;1.02;0.85;;;15.70;86.30;;;;;;5125465;27;27241;-68
2021/05/11 00:11:29;;;;;;;0.73;0.70;;;15.70;86.10;;;;;;5110075;27;27328;-65
2021/05/11 00:14:14;;;;;;;1.42;0.65;;;15.60;86.10;;;;;;5125557;27;27403;-65
2021/05/11 00:16:58;;;;;;;0.85;0.70;;;15.60;86.70;;;;;;5125626;27;27427;-65
2021/05/11 00:19:43;;;;;;;0.90;0.80;;;15.60;87.10;;;;;;5125636;27;27456;-65
2021/05/11 00:22:28;;;;;;;0.70;0.70;;;15.60;87.10;;;;;;5125042;27;27461;-65
2021/05/11 00:25:13;;;;;;;1.70;0.68;;;15.60;86.70;;;;;;5125144;27;27462;-65
2021/05/11 00:27:58;;;;;;;0.70;0.70;;;15.60;86.70;;;;;;5110156;27;27420;-65
2021/05/11 00:30:43;;;;;;;0.80;0.60;;;15.50;87.60;;;;;;5124886;27;27431;-65
2021/05/11 00:33:28;;;;;;;1.30;1.10;;;15.50;87.40;;;;;;5125092;27;28055;-65
2021/05/11 00:36:12;;;;;;;0.82;0.82;;;15.50;87.80;;;;;;5109920;27;27486;-65
2021/05/11 00:38:57;;;;;;;3.35;0.73;;;15.50;87.80;;;;;;5125348;27;27408;-66
2021/05/11 00:41:41;;;;;;;2.42;0.73;;;15.50;87.80;;;;;;5121427;27;27445;-65
2021/05/11 00:44:27;;;;;;;1.27;0.70;;;15.50;87.90;;;;;;5124806;27;27391;-65
2021/05/11 00:47:11;;;;;;;1.30;0.80;;;15.50;87.80;;;;;;5124836;27;27501;-65
2021/05/11 00:49:56;;;;;;;2.35;0.80;;;15.50;87.50;;;;;;5124865;27;27491;-65
2021/05/11 00:52:41;;;;;;;0.77;0.60;;;15.50;87.60;;;;;;5125060;27;27471;-65
2021/05/11 00:55:27;;;;;;;0.98;0.88;;;15.50;87.80;;;;;;5094243;27;27411;-65
2021/05/11 00:58:12;;;;;;;1.73;0.70;;;15.40;87.60;;;;;;5124864;27;27462;-65
2021/05/11 01:00:57;;;;;;;0.70;0.70;;;15.40;87.80;;;;;;5102534;28;27537;-65
2021/05/11 01:03:41;;;;;;;0.82;0.80;;;15.40;88.20;;;;;;5104239;28;27461;-65
2021/05/11 01:06:26;;;;;;;1.25;0.80;;;15.40;88.20;;;;;;5103374;28;27482;-65
2021/05/11 01:09:10;;;;;;;1.83;0.98;;;15.40;87.90;;;;;;5103969;28;27442;-65
2021/05/11 01:11:55;;;;;;;1.40;0.98;;;15.40;88.20;;;;;;5103995;28;27497;-65
2021/05/11 01:14:40;;;;;;;0.98;0.80;;;15.40;88.30;;;;;;5103360;28;27468;-65
2021/05/11 01:17:34;;;;;;;1.17;1.08;;;15.40;88.30;;;;;;5103137;28;27514;-64
2021/05/11 01:20:28;;;;;;;1.00;0.90;;;15.40;88.30;;;;;;5103744;28;27415;-64
2021/05/11 01:26:06;;;;;;;1.08;0.90;;;15.30;88.00;;;;;;5103087;28;27364;-65
2021/05/11 01:46:58;;;;;;;0.77;0.77;;;15.30;88.50;;;;;;5103618;28;27405;-64
2021/05/11 01:56:23;;;;;;;2.58;1.00;;;15.20;88.50;;;;;;5041349;28;27452;-65
2021/05/11 02:23:45;;;;;;;0.93;0.80;;;15.10;89.00;;;;;;5044254;28;27507;-64
2021/05/11 02:26:30;;;;;;;1.10;0.90;;;15.10;88.90;;;;;;5047414;28;27485;-64
2021/05/11 02:29:15;;;;;;;1.50;1.30;;;15.10;89.20;;;;;;5106679;28;27468;-64
2021/05/11 02:31:59;;;;;;;2.03;1.52;;;15.10;89.50;;;;;;5106496;28;27472;-64
2021/05/11 02:34:44;;;;;;;2.38;0.90;;;15.10;89.80;;;;;;5103383;28;27470;-65
2021/05/11 02:37:29;;;;;;;1.27;0.88;;;15.10;89.90;;;;;;5106742;28;27549;-64
2021/05/11 02:40:15;;;;;;;1.65;1.23;;;15.00;89.00;;;;;;5106342;28;27454;-64
2021/05/11 02:43:06;;;;;;;4.03;1.30;;;15.00;89.10;;;;;;5102430;28;27487;-64
2021/05/11 02:45:51;;;;;;;1.00;0.90;;;15.00;89.20;;;;;;5106485;28;27383;-64
2021/05/11 02:48:35;;;;;;;1.08;0.95;;;15.00;89.10;;;;;;5105978;28;27329;-65
2021/05/11 02:51:20;;;;;;;1.45;1.10;;;15.00;88.80;;;;;;5106594;28;27367;-64
2021/05/11 02:54:04;;;;;;;2.20;1.20;;;15.00;88.80;;;;;;5088107;28;27337;-64
2021/05/11 02:56:49;;;;;;;2.05;1.10;;;15.00;89.20;;;;;;5106252;28;27336;-64
2021/05/11 02:59:34;;;;;;;0.98;0.85;;;15.00;89.30;;;;;;5106065;27;27325;-67
2021/05/11 03:02:19;;;;;;;1.45;1.27;;;15.00;89.50;;;;;;5126621;27;27386;-64
2021/05/11 03:05:04;;;;;;;2.85;0.73;;;14.90;89.10;;;;;;5126883;27;27480;-64
2021/05/11 03:07:49;;;;;;;1.88;1.05;;;14.90;89.00;;;;;;5126758;27;27402;-64
2021/05/11 03:10:34;;;;;;;3.00;1.05;;;14.90;89.20;;;;;;5126645;27;27342;-64
2021/05/11 03:13:19;;;;;;;1.08;0.98;;;14.90;89.30;;;;;;5111494;27;27431;-64
2021/05/11 03:16:03;;;;;;;1.95;1.05;;;14.90;89.50;;;;;;5126410;27;27521;-64
2021/05/11 03:18:48;;;;;;;1.85;1.27;;;14.80;89.30;;;;;;5126034;27;27466;-65
2021/05/11 03:21:32;;;;;;;3.40;1.00;;;14.80;89.50;;;;;;5107849;27;27422;-64
2021/05/11 03:24:17;;;;;;;1.48;1.10;;;14.80;89.40;;;;;;5093267;27;27483;-64
2021/05/11 03:27:02;;;;;;;1.25;0.90;;;14.80;89.60;;;;;;5126277;27;27445;-64
2021/05/11 03:29:46;;;;;;;1.38;1.25;;;14.80;89.30;;;;;;5126545;27;27415;-64
2021/05/11 03:32:31;;;;;;;2.60;1.08;;;14.70;89.50;;;;;;5126328;27;27466;-64
2021/05/11 03:35:16;;;;;;;2.85;1.15;;;14.70;89.20;;;;;;5096505;27;27440;-63
2021/05/11 03:38:01;;;;;;;1.45;0.90;;;14.70;89.10;;;;;;5126383;27;27498;-64
2021/05/11 03:40:46;;;;;;;2.40;1.33;;;14.60;89.20;;;;;;5093307;27;27440;-64
2021/05/11 03:43:36;;;;;;;1.25;1.00;;;14.60;89.50;;;;;;5125618;27;27457;-64
2021/05/11 03:46:21;;;;;;;1.45;1.23;;;14.60;89.10;;;;;;5126216;27;27366;-64
2021/05/11 03:49:06;;;;;;;1.50;1.40;;;14.60;89.30;;;;;;5126239;27;27391;-64
2021/05/11 03:51:51;;;;;;;3.17;1.13;;;14.50;89.30;;;;;;5125960;27;27387;-63
2021/05/11 03:54:36;;;;;;;1.75;1.60;;;14.50;89.20;;;;;;5125939;27;27370;-64
2021/05/11 03:57:21;;;;;;;1.30;1.20;;;14.50;89.70;;;;;;5110824;27;27336;-64
2021/05/11 04:00:06;;;;;;;1.63;1.45;;;14.40;89.00;;;;;;5125476;27;27605;-64
2021/05/11 04:02:52;;;;;;;1.67;1.42;;;14.40;89.50;;;;;;5125851;27;27421;-64
2021/05/11 04:05:36;;;;;;;1.70;1.50;;;14.40;90.00;;;;;;5110632;27;27435;-64
2021/05/11 04:08:39;;;;;;;2.28;1.40;;;14.40;89.60;;;;;;5122309;27;27845;-64
2021/05/11 04:14:19;;;;;;;2.38;1.65;;;14.40;89.70;;;;;;5092929;27;27455;-63
2021/05/11 04:17:04;;;;;;;2.30;2.10;;;14.30;90.00;;;;;;5125856;27;27352;-64
2021/05/11 04:19:49;;;;;;;3.03;1.90;;;14.30;90.10;;;;;;5125548;27;27973;-63
2021/05/11 04:22:34;;;;;;;2.22;2.00;;;14.30;90.10;;;;;;5125496;27;27415;-63
2021/05/11 04:25:18;;;;;;;2.42;1.90;;;14.30;90.10;;;;;;5125402;27;27462;-64
2021/05/11 04:28:03;;;;;;;3.30;1.70;;;14.30;90.30;;;;;;5110237;27;27020;-63
2021/05/11 04:30:48;;;;;;;2.90;1.80;;;14.30;90.00;;;;;;5106517;27;27428;-63
2021/05/11 04:33:33;;;;;;;3.25;1.70;;;14.30;90.30;;;;;;5092356;27;27444;-63
2021/05/11 04:36:18;;;;;;;2.22;1.70;;;14.30;90.20;;;;;;5110228;27;27412;-63
2021/05/11 04:39:04;;;;;;;3.78;2.20;;;14.30;90.30;;;;;;5124943;27;27639;-63
2021/05/11 04:41:49;;;;;;;2.58;2.20;;;14.30;90.40;;;;;;5125155;27;27926;-63
2021/05/11 04:44:35;;;;;;;5.63;3.00;;;14.30;90.70;;;;;;5125478;27;27332;-63
2021/05/11 04:47:30;;;;;;;4.88;2.65;;;14.30;90.70;;;;;;5122629;27;27336;-64
2021/05/11 04:50:17;;;;;;;2.67;2.40;;;14.40;90.70;;;;;;5125237;27;27399;-63
2021/05/11 04:53:02;;;;;;;2.58;2.15;;;14.40;90.80;;;;;;5125020;27;27383;-63
2021/05/11 04:55:47;;;;;;;3.15;2.63;;;14.40;90.80;;;;;;5109659;27;27360;-64
2021/05/11 04:58:34;;;;;;;4.10;3.00;;;14.40;91.10;;;;;;5109950;27;27418;-64
2021/05/11 05:01:19;;;;;;;3.00;2.70;;;14.40;91.20;;;;;;5101686;28;27591;-64
2021/05/11 05:04:04;;;;;;;4.78;3.63;;;14.40;91.20;;;;;;5100123;28;27402;-64
2021/05/11 05:06:49;;;;;;;6.40;3.55;;;14.40;91.20;;;;;;5103852;28;27485;-64
2021/05/11 05:09:34;;;;;;;6.80;5.15;;;14.40;91.40;;;;;;5104505;28;27451;-64
2021/05/11 05:12:19;;;;;;;9.85;6.88;;;14.50;91.40;;;;;;5100892;28;27453;-64
2021/05/11 05:15:05;;;;;;;10.85;6.53;;;14.50;90.90;;;;;;5104041;28;27529;-64
2021/05/11 05:17:50;;;;;;;11.98;7.63;;;14.50;91.10;;;;;;5104044;28;27431;-64
2021/05/11 05:20:35;;;;;;;7.35;4.35;;;14.50;89.10;;;;;;5104283;28;27499;-64
2021/05/11 05:23:21;;;;;;;14.75;9.20;;;14.50;89.40;;;;;;5089069;28;27513;-64
2021/05/11 05:26:09;;;;;;;14.98;8.85;;;14.50;89.50;;;;;;5104232;28;27458;-64
2021/05/11 05:28:55;;;;;;;16.02;9.93;;;14.60;87.70;;;;;;5105112;28;27352;-65
2021/05/11 05:31:40;;;;;;;16.15;9.57;;;14.60;86.20;;;;;;5085617;28;27348;-64
2021/05/11 05:34:24;;;;;;;12.57;7.18;;;14.70;86.70;;;;;;5103665;28;27619;-65
2021/05/11 05:37:09;;;;;;;11.02;6.75;;;14.70;86.10;;;;;;5103426;28;27868;-65
2021/05/11 05:39:58;;;;;;;17.90;10.30;;;14.70;85.80;;;;;;5103794;28;27398;-65
2021/05/11 05:42:42;;;;;;;17.33;10.00;;;14.70;86.20;;;;;;5102999;28;27348;-65
2021/05/11 05:45:27;;;;;;;15.10;10.27;;;14.80;85.70;;;;;;5103915;28;27328;-65
2021/05/11 05:48:12;;;;;;;16.27;10.50;;;14.80;85.40;;;;;;5103694;28;27408;-64
2021/05/11 05:51:00;;;;;;;15.60;8.02;;;14.80;85.80;;;;;;5103635;28;27397;-65
2021/05/11 05:53:45;;;;;;;16.63;9.68;;;14.90;85.80;;;;;;5104411;28;27470;-65
2021/05/11 05:56:29;;;;;;;15.13;9.73;;;14.80;86.00;;;;;;5102786;28;27510;-64
2021/05/11 05:59:16;;;;;;;15.20;10.10;;;14.90;85.10;;;;;;5103547;28;27489;-65
2021/05/11 06:02:01;;;;;;;17.15;9.93;;;14.90;85.20;;;;;;5101969;28;27588;-65
2021/05/11 06:04:46;;;;;;;14.80;10.05;;;14.90;86.10;;;;;;5103540;28;27419;-65
2021/05/11 06:07:30;;;;;;;12.95;9.38;;;14.90;85.40;;;;;;5103372;28;27441;-65
2021/05/11 06:10:15;;;;;;;14.32;9.77;;;15.00;85.40;;;;;;5103586;28;27884;-65
2021/05/11 06:13:12;;;;;;;14.88;10.20;;;15.00;85.40;;;;;;5103548;28;27545;-66
2021/05/11 06:19:00;;;;;;;13.60;9.30;;;15.00;85.50;;;;;;5103430;28;27484;-65
2021/05/11 06:21:45;;;;;;;12.48;7.72;;;15.00;86.30;;;;;;5102260;28;27420;-66
2021/05/11 06:24:30;;;;;;;14.07;9.55;;;15.10;86.40;;;;;;5102677;28;27471;-65
2021/05/11 06:27:15;;;;;;;14.52;9.77;;;15.10;86.20;;;;;;5103459;28;27590;-65
2021/05/11 06:30:00;;;;;;;16.52;9.77;;;15.20;85.80;;;;;;5102790;28;27634;-65
2021/05/11 06:32:44;;;;;;;15.63;9.73;;;15.20;86.70;;;;;;5073653;28;27533;-65
2021/05/11 06:35:31;;;;;;;12.43;7.75;;;15.20;86.20;;;;;;5103219;28;27453;-65
2021/05/11 06:38:16;;;;;;;14.73;10.35;;;15.20;86.40;;;;;;5099799;28;27461;-69
2021/05/11 06:41:01;;;;;;;13.45;9.52;;;15.30;86.80;;;;;;5101966;28;27478;-66
2021/05/11 06:43:47;;;;;;;14.02;10.20;;;15.30;86.20;;;;;;5102931;28;27941;-65
2021/05/11 06:47:09;;;;;;;12.38;9.38;;;15.30;85.50;;;;;;5103104;28;27504;-65
2021/05/11 06:49:59;;;;;;;17.80;10.23;;;15.30;86.50;;;;;;5102899;28;27449;-65
2021/05/11 06:52:53;;;;;;;9.82;7.75;;;15.40;86.70;;;;;;5103043;28;27313;-66
2021/05/11 06:55:40;;;;;;;12.95;9.80;;;15.40;86.60;;;;;;5105129;28;27422;-66
2021/05/11 06:58:25;;;;;;;11.68;7.68;;;15.40;86.80;;;;;;5103016;28;27389;-66
2021/05/11 07:01:09;;;;;;;12.55;8.80;;;15.40;87.30;;;;;;5119254;27;27716;-69
2021/05/11 07:03:54;;;;;;;13.10;9.23;;;15.50;86.80;;;;;;5126638;27;27594;-66
2021/05/11 07:06:39;;;;;;;11.38;8.48;;;15.50;86.60;;;;;;5111265;27;27446;-66
2021/05/11 07:09:36;;;;;;;14.18;8.45;;;15.50;86.20;;;;;;5127709;27;27470;-65
2021/05/11 07:15:25;;;;;;;12.35;8.43;;;15.50;87.60;;;;;;5127661;27;27312;-66
2021/05/11 07:18:18;;;;;;;11.90;7.32;;;15.60;87.50;;;;;;5127557;27;27885;-67
2021/05/11 07:21:03;;;;;;;9.68;7.22;;;15.60;88.10;;;;;;5127094;27;27458;-64
2021/05/11 07:23:48;;;;;;;10.13;8.30;;;15.60;88.30;;;;;;5127094;27;27492;-66
2021/05/11 07:26:36;;;;;;;9.63;6.82;;;15.70;88.10;;;;;;5127521;27;27390;-66
2021/05/11 07:32:06;;;;;;;10.93;7.68;;;15.80;86.30;;;;;;5127091;27;27496;-66
2021/05/11 07:34:54;;;;;;;9.85;7.18;;;15.90;86.40;;;;;;5127103;27;27385;-66
2021/05/11 07:37:39;;;;;;;10.60;7.15;;;15.80;86.30;;;;;;5112451;27;27658;-66
2021/05/11 07:40:25;;;;;;;9.68;7.53;;;15.80;86.90;;;;;;5127004;27;27371;-67
2021/05/11 07:43:11;;;;;;;8.32;6.95;;;15.90;86.40;;;;;;5126873;27;27465;-70
2021/05/11 07:46:16;;;;;;;11.00;8.45;;;15.90;86.60;;;;;;5127200;27;27434;-66
2021/05/11 08:15:59;;;;;;;10.00;7.93;;;16.30;88.20;;;;;;5126654;27;27439;-65
2021/05/11 08:18:58;;;;;;;8.80;6.40;;;16.40;88.10;;;;;;5126215;27;27470;-65
2021/05/11 08:28:01;;;;;;;9.30;7.80;;;16.70;85.50;;;;;;5122838;27;27849;-65
2021/05/11 08:30:46;;;;;;;7.85;6.68;;;16.80;86.80;;;;;;5126128;27;27415;-65
2021/05/11 08:33:30;;;;;;;9.05;7.60;;;16.80;86.20;;;;;;5110930;27;27346;-66
2021/05/11 08:36:15;;;;;;;10.85;8.05;;;16.90;85.80;;;;;;5126106;27;27380;-70
2021/05/11 08:39:00;;;;;;;8.50;7.03;;;17.00;86.50;;;;;;5126314;27;27397;-66
2021/05/11 08:41:44;;;;;;;8.25;6.93;;;17.10;85.50;;;;;;5125784;27;27520;-68
2021/05/11 08:44:29;;;;;;;10.95;8.10;;;17.20;86.20;;;;;;5125964;27;27400;-68
2021/05/11 08:47:18;;;;;;;10.55;9.20;;;17.30;86.50;;;;;;5110477;27;27403;-66
2021/05/11 08:50:03;;;;;;;11.18;8.85;;;17.30;86.40;;;;;;5122787;27;27354;-66
2021/05/11 09:08:00;;;;;;;8.95;7.13;;;17.50;85.40;;;;;;5125920;27;27332;-66
2021/05/11 09:26:21;;;;;;;10.90;8.02;;;17.90;86.10;;;;;;5112680;27;27840;-70
2021/05/11 09:29:24;;;;;;;11.75;7.68;;;17.90;86.00;;;;;;5111174;27;27394;-66
2021/05/11 09:44:51;;;;;;;9.65;7.45;;;18.00;85.20;;;;;;5125204;27;27473;-64
2021/05/11 09:56:46;;;;;;;9.75;7.38;;;18.30;82.80;;;;;;5125249;27;26920;-62
2021/05/11 10:37:28;;;;;;;5.22;4.25;;;19.10;74.90;;;;;;5127325;27;27481;-62
2021/05/11 10:48:40;;;;;;;8.07;4.28;;;19.20;77.10;;;;;;5124535;27;27389;-60
2021/05/11 10:51:28;;;;;;;5.13;3.70;;;19.30;75.00;;;;;;5127585;27;27985;-61
2021/05/11 10:54:13;;;;;;;5.90;4.05;;;19.30;76.10;;;;;;5109319;27;27491;-61
2021/05/11 10:57:01;;;;;;;7.03;3.47;;;19.40;77.70;;;;;;5098364;27;27458;-61
2021/05/11 10:59:54;;;;;;;5.22;3.25;;;19.60;78.80;;;;;;5127581;27;27355;-62
2021/05/11 11:02:44;;;;;;;4.18;3.30;;;19.70;79.40;;;;;;5127027;27;27824;-61
2021/05/11 11:05:35;;;;;;;3.40;3.10;;;19.90;79.90;;;;;;5113288;27;27332;-61
2021/05/11 11:08:38;;;;;;;3.33;3.03;;;20.20;80.90;;;;;;5127752;27;27362;-61
2021/05/11 11:11:24;;;;;;;4.72;3.10;;;20.70;82.70;;;;;;5127445;27;27441;-61
2021/05/11 11:14:09;;;;;;;3.78;3.05;;;21.20;82.10;;;;;;5127673;27;27446;-61
2021/05/11 11:17:01;;;;;;;3.78;3.08;;;21.50;82.50;;;;;;5098026;27;27493;-61
2021/05/11 11:19:55;;;;;;;4.22;2.70;;;21.80;80.40;;;;;;5127410;27;27469;-61
2021/05/11 11:26:00;;;;;;;3.08;2.35;;;22.40;78.00;;;;;;5114541;27;27960;-61
2021/05/11 11:28:45;;;;;;;2.55;2.35;;;22.80;79.50;;;;;;5111783;27;27496;-61
2021/05/11 11:31:33;;;;;;;3.72;2.47;;;23.00;78.10;;;;;;5127125;27;27423;-62
2021/05/11 11:34:24;;;;;;;2.63;2.42;;;23.10;77.20;;;;;;5127422;27;27347;-64
2021/05/11 11:37:15;;;;;;;4.97;2.33;;;23.40;77.80;;;;;;5127410;27;27472;-63
2021/05/11 11:40:02;;;;;;;1.90;1.80;;;23.70;79.90;;;;;;5126213;27;27451;-62
2021/05/11 11:42:49;;;;;;;4.80;2.58;;;23.80;78.90;;;;;;5126960;27;27470;-63
2021/05/11 11:45:38;;;;;;;4.78;2.40;;;23.90;76.40;;;;;;5127240;27;27460;-63
2021/05/11 11:48:24;;;;;;;2.00;1.88;;;23.70;73.40;;;;;;5126974;27;27437;-62
2021/05/11 11:51:10;;;;;;;2.88;2.67;;;23.50;74.50;;;;;;5111917;27;27394;-62
2021/05/11 11:54:16;;;;;;;2.63;2.40;;;23.30;74.70;;;;;;5111684;27;27493;-62
2021/05/11 11:59:55;;;;;;;3.42;3.13;;;22.80;74.30;;;;;;5111361;27;27426;-62
2021/05/11 12:03:01;;;;;;;2.72;2.53;;;22.60;73.90;;;;;;5126562;27;27538;-62
2021/05/11 12:05:49;;;;;;;3.75;3.13;;;22.40;75.00;;;;;;5126890;27;27489;-62
2021/05/11 12:08:34;;;;;;;3.67;2.33;;;22.20;75.70;;;;;;5126502;27;27419;-61
2021/05/11 12:11:19;;;;;;;3.63;2.50;;;22.10;76.00;;;;;;5126791;27;27981;-62
2021/05/11 12:14:04;;;;;;;2.78;2.40;;;22.00;76.10;;;;;;5111537;27;27441;-61
2021/05/11 12:16:49;;;;;;;6.28;2.75;;;21.90;75.40;;;;;;5111299;27;27436;-62
2021/05/11 12:19:36;;;;;;;2.70;2.50;;;21.80;74.20;;;;;;5126646;27;27407;-62
2021/05/11 12:22:20;;;;;;;2.50;2.30;;;21.70;74.20;;;;;;5126043;27;27371;-63
2021/05/11 12:25:06;;;;;;;5.72;3.05;;;21.60;73.90;;;;;;5126100;27;27420;-62
2021/05/11 12:27:51;;;;;;;5.10;3.33;;;21.50;74.50;;;;;;5111318;27;27421;-62
2021/05/11 12:30:41;;;;;;;3.33;2.90;;;21.50;74.30;;;;;;5126257;27;27395;-61
2021/05/11 12:33:33;;;;;;;3.53;3.22;;;21.40;75.40;;;;;;5126339;27;27404;-61
2021/05/11 12:36:21;;;;;;;3.88;3.20;;;21.30;74.70;;;;;;5111073;27;27412;-61
2021/05/11 12:39:39;;;;;;;3.35;3.05;;;21.30;74.60;;;;;;5126084;27;27482;-61
2021/05/11 12:42:25;;;;;;;3.75;3.45;;;21.30;75.60;;;;;;5125708;27;27580;-62
2021/05/11 12:45:14;;;;;;;3.22;2.92;;;21.20;75.40;;;;;;5125856;27;27873;-61
2021/05/11 12:48:00;;;;;;;5.25;3.25;;;21.30;74.60;;;;;;5126247;27;27402;-62
2021/05/11 12:50:46;;;;;;;2.97;2.67;;;21.20;74.00;;;;;;5125874;27;27481;-61
2021/05/11 12:53:41;;;;;;;3.45;2.60;;;21.20;74.00;;;;;;5125398;27;27452;-62
2021/05/11 12:57:26;;;;;;;2.65;2.45;;;21.10;75.00;;;;;;5125729;27;27419;-61
2021/05/11 13:00:09;;;;;;;2.78;2.55;;;21.10;76.70;;;;;;5122361;27;27499;-62
2021/05/11 13:03:19;;;;;;;3.35;2.55;;;21.00;75.30;;;;;;5114145;27;27375;-61
2021/05/11 13:09:33;;;;;;;4.32;2.28;;;20.80;76.20;;;;;;5125823;27;27501;-61
2021/05/11 13:15:38;;;;;;;1.90;1.80;;;20.70;76.60;;;;;;5125750;27;27402;-61
2021/05/11 13:27:46;;;;;;;2.28;1.48;;;20.30;76.80;;;;;;5112283;27;27360;-61
2021/05/11 13:30:38;;;;;;;3.97;1.20;;;20.20;75.70;;;;;;5125523;27;27391;-61
2021/05/11 13:36:11;;;;;;;2.15;1.40;;;20.00;77.10;;;;;;5110260;27;27567;-61
2021/05/11 13:38:56;;;;;;;3.55;1.50;;;19.90;77.10;;;;;;5125202;27;27412;-62
2021/05/11 13:41:43;;;;;;;1.48;1.38;;;19.70;77.50;;;;;;5125203;27;27400;-62
2021/05/11 13:44:28;;;;;;;1.92;1.77;;;19.60;77.50;;;;;;5125033;27;27487;-62
2021/05/11 13:47:12;;;;;;;1.88;1.55;;;19.50;78.50;;;;;;5107585;27;27414;-62
2021/05/11 13:50:00;;;;;;;2.60;1.85;;;19.50;78.80;;;;;;5125048;27;27426;-62
2021/05/11 13:52:45;;;;;;;2.47;1.50;;;19.40;79.40;;;;;;5125240;27;27382;-62
2021/05/11 13:55:41;;;;;;;2.50;1.67;;;19.30;79.60;;;;;;5125128;27;27366;-61
2021/05/11 14:01:38;;;;;;;2.63;2.42;;;19.20;79.20;;;;;;5124125;27;27422;-61
2021/05/11 14:04:22;;;;;;;2.78;2.47;;;19.20;79.10;;;;;;5126974;27;27477;-61
2021/05/11 14:07:07;;;;;;;4.18;2.60;;;19.10;79.40;;;;;;5128375;27;27446;-61
2021/05/11 14:09:52;;;;;;;3.33;3.03;;;19.00;79.70;;;;;;5128315;27;27449;-62
2021/05/11 14:12:37;;;;;;;4.03;3.72;;;19.00;79.30;;;;;;5128685;27;27407;-61
2021/05/11 14:15:22;;;;;;;3.92;3.17;;;18.90;79.30;;;;;;5127776;27;27594;-61
2021/05/11 14:18:07;;;;;;;3.42;3.13;;;18.80;79.30;;;;;;5124926;27;27399;-61
2021/05/11 14:20:52;;;;;;;6.45;3.30;;;18.80;80.50;;;;;;5128513;27;27524;-61
2021/05/11 14:23:37;;;;;;;3.45;3.15;;;18.70;81.30;;;;;;5128276;27;27411;-61
2021/05/11 14:26:23;;;;;;;4.03;3.08;;;18.70;81.10;;;;;;5128197;27;27509;-62
2021/05/11 14:29:08;;;;;;;4.03;3.22;;;18.60;81.30;;;;;;5128386;27;27877;-61
2021/05/11 14:31:52;;;;;;;3.30;3.05;;;18.60;80.90;;;;;;5128020;27;27477;-62
2021/05/11 14:34:37;;;;;;;4.57;3.63;;;18.50;81.30;;;;;;5128080;27;27416;-61
2021/05/11 14:37:22;;;;;;;3.03;2.50;;;18.40;81.90;;;;;;5128015;27;27462;-61
2021/05/11 14:40:08;;;;;;;3.42;2.05;;;18.40;82.40;;;;;;5127877;27;27865;-61
2021/05/11 14:42:53;;;;;;;4.60;2.30;;;18.30;83.40;;;;;;5127225;27;27585;-61
2021/05/11 14:45:38;;;;;;;3.80;2.70;;;18.20;83.50;;;;;;5128218;27;27460;-61
2021/05/11 14:48:23;;;;;;;5.20;1.85;;;18.20;84.30;;;;;;5127747;27;27396;-61
2021/05/11 14:51:08;;;;;;;1.60;1.50;;;18.20;83.70;;;;;;5127735;27;28067;-61
2021/05/11 14:53:53;;;;;;;3.50;1.48;;;18.10;83.60;;;;;;5127745;27;27476;-61
2021/05/11 14:56:41;;;;;;;2.85;1.52;;;18.10;83.60;;;;;;5127709;27;27328;-61
2021/05/11 14:59:25;;;;;;;1.95;1.10;;;18.10;84.10;;;;;;5127708;27;27382;-62
2021/05/11 15:02:14;;;;;;;1.33;0.90;;;18.00;83.60;;;;;;5111570;27;27391;-61
2021/05/11 15:04:58;;;;;;;1.00;0.75;;;18.00;83.60;;;;;;5127808;27;27500;-61
2021/05/11 15:07:43;;;;;;;1.83;1.20;;;17.90;83.60;;;;;;5127755;27;27398;-61
2021/05/11 15:10:28;;;;;;;1.92;1.13;;;17.90;83.90;;;;;;5127359;27;27399;-61
2021/05/11 15:13:14;;;;;;;1.15;1.05;;;17.90;84.20;;;;;;5127691;27;27395;-61
2021/05/11 15:16:03;;;;;;;1.20;1.00;;;17.80;84.90;;;;;;5126416;27;27395;-61
2021/05/11 15:18:48;;;;;;;1.00;0.82;;;17.80;85.30;;;;;;5127631;27;27423;-61
2021/05/11 15:21:34;;;;;;;0.88;0.80;;;17.70;86.10;;;;;;5127186;27;27442;-61
2021/05/11 15:24:18;;;;;;;5.93;3.35;;;17.70;86.60;;;;;;5108883;27;27478;-61
2021/05/11 15:27:04;;;;;;;1.80;1.38;;;17.60;86.80;;;;;;5127122;27;27415;-61
2021/05/11 15:29:48;;;;;;;2.10;1.42;;;17.60;86.90;;;;;;5094430;27;27406;-61
2021/05/11 15:32:56;;;;;;;2.00;1.17;;;17.50;86.80;;;;;;5127091;27;27336;-61
2021/05/11 15:35:41;;;;;;;2.60;1.15;;;17.50;87.30;;;;;;5127304;27;27328;-61
2021/05/11 15:38:29;;;;;;;1.60;0.95;;;17.50;87.40;;;;;;5127351;27;27375;-61
2021/05/11 15:41:14;;;;;;;0.88;0.88;;;17.40;87.40;;;;;;5127179;27;27328;-61
2021/05/11 15:43:58;;;;;;;4.15;2.40;;;17.40;88.30;;;;;;5127020;27;27370;-61
2021/05/11 15:46:43;;;;;;;6.65;3.17;;;17.40;87.90;;;;;;5126823;27;27371;-61
2021/05/11 15:49:28;;;;;;;8.13;3.25;;;17.30;87.80;;;;;;5127143;27;27343;-61
2021/05/11 15:52:14;;;;;;;7.38;3.50;;;17.30;88.30;;;;;;5127108;27;27362;-61
2021/05/11 15:54:59;;;;;;;8.35;4.65;;;17.30;88.20;;;;;;5127103;27;27382;-60
2021/05/11 15:57:44;;;;;;;14.15;6.95;;;17.20;88.20;;;;;;5123362;27;27366;-61
2021/05/11 16:00:30;;;;;;;5.28;2.35;;;17.20;88.50;;;;;;5126349;27;27646;-61
2021/05/11 16:03:15;;;;;;;4.18;2.15;;;17.10;89.00;;;;;;5126512;27;27386;-61
2021/05/11 16:06:00;;;;;;;5.38;2.08;;;17.10;88.60;;;;;;5126263;27;27375;-61
2021/05/11 16:08:45;;;;;;;3.60;1.48;;;17.10;89.00;;;;;;5126743;27;27989;-61
2021/05/11 16:11:30;;;;;;;3.00;1.77;;;17.10;89.50;;;;;;5126705;27;27391;-61
2021/05/11 16:14:15;;;;;;;3.35;2.45;;;17.10;89.40;;;;;;5126429;27;27327;-62
2021/05/11 16:17:00;;;;;;;3.38;2.25;;;17.00;89.70;;;;;;5111384;27;26948;-61
2021/05/11 16:19:47;;;;;;;5.28;3.00;;;17.00;89.40;;;;;;5126374;27;27511;-61
2021/05/11 16:22:32;;;;;;;4.45;3.38;;;16.90;89.30;;;;;;5126109;27;27506;-62
2021/05/11 16:25:17;;;;;;;5.38;2.55;;;16.90;89.90;;;;;;5126422;27;27419;-61
2021/05/11 16:28:04;;;;;;;4.22;1.70;;;16.90;89.70;;;;;;5125894;27;27473;-61
2021/05/11 16:30:49;;;;;;;3.53;1.65;;;16.80;90.30;;;;;;5126473;27;27400;-61
2021/05/11 16:33:36;;;;;;;2.78;1.40;;;16.80;89.70;;;;;;5123083;27;27407;-61
2021/05/11 16:36:20;;;;;;;2.70;1.83;;;16.80;89.50;;;;;;5111134;27;27351;-61
2021/05/11 16:39:05;;;;;;;4.18;2.55;;;16.70;89.90;;;;;;5126103;27;27430;-61
2021/05/11 16:41:50;;;;;;;3.45;2.55;;;16.70;89.30;;;;;;5126147;27;27437;-61
2021/05/11 16:44:36;;;;;;;1.85;1.70;;;16.70;88.30;;;;;;5125970;27;27346;-61
2021/05/11 16:47:21;;;;;;;3.97;2.30;;;16.60;89.30;;;;;;5125978;27;27430;-61
2021/05/11 16:50:07;;;;;;;3.53;2.05;;;16.60;89.60;;;;;;5125900;27;27435;-61
2021/05/11 16:52:53;;;;;;;2.80;2.20;;;16.60;87.10;;;;;;5126068;27;27328;-62
2021/05/11 16:55:37;;;;;;;2.58;2.10;;;16.50;90.10;;;;;;5125695;27;27390;-61
2021/05/11 16:58:22;;;;;;;3.22;2.20;;;16.50;90.30;;;;;;5125805;27;27367;-62
2021/05/11 17:01:07;;;;;;;4.75;2.28;;;16.50;90.20;;;;;;5124703;27;27328;-61
2021/05/11 17:03:52;;;;;;;4.03;2.55;;;16.40;90.30;;;;;;5125710;27;27335;-62
2021/05/11 17:06:37;;;;;;;3.08;1.90;;;16.40;87.20;;;;;;5125942;27;27371;-61
2021/05/11 17:09:22;;;;;;;3.13;1.90;;;16.40;87.80;;;;;;5107349;27;27328;-61
2021/05/11 17:12:07;;;;;;;3.78;2.95;;;16.30;90.00;;;;;;5122484;27;27324;-62
2021/05/11 17:14:52;;;;;;;4.05;2.00;;;16.30;90.90;;;;;;5125766;27;27865;-62
2021/05/11 17:17:38;;;;;;;5.38;2.55;;;16.30;91.40;;;;;;5107081;27;27589;-62
2021/05/11 17:20:25;;;;;;;7.47;2.47;;;16.30;91.60;;;;;;5125459;27;27340;-63
2021/05/11 17:23:10;;;;;;;9.43;3.22;;;16.30;91.50;;;;;;5110459;27;27398;-62
2021/05/11 17:25:55;;;;;;;3.30;2.30;;;16.30;91.70;;;;;;5125599;27;27375;-62
2021/05/11 17:28:41;;;;;;;44.80;4.78;;;16.30;91.70;;;;;;5125268;27;27389;-62
2021/05/11 17:31:26;;;;;;;6.93;2.30;;;16.20;92.00;;;;;;5125236;27;27477;-62
2021/05/11 17:34:11;;;;;;;4.90;2.20;;;16.20;92.30;;;;;;5125423;27;27469;-63
2021/05/11 17:36:56;;;;;;;4.60;2.28;;;16.20;91.90;;;;;;5125158;27;27446;-62
2021/05/11 17:39:41;;;;;;;4.18;2.00;;;16.20;92.20;;;;;;5124302;27;27478;-63
2021/05/11 17:42:25;;;;;;;8.25;3.30;;;16.20;92.60;;;;;;5124943;27;27399;-62
2021/05/11 17:45:10;;;;;;;3.50;2.85;;;16.10;92.80;;;;;;5121796;27;27333;-61
2021/05/11 17:47:58;;;;;;;3.50;2.38;;;16.10;93.10;;;;;;5124973;27;27873;-62
2021/05/11 17:50:43;;;;;;;2.70;2.30;;;16.10;93.00;;;;;;5125291;27;27411;-61
2021/05/11 17:53:28;;;;;;;2.25;2.05;;;16.10;93.40;;;;;;5124995;27;27435;-62
2021/05/11 17:56:14;;;;;;;6.55;2.67;;;16.10;93.50;;;;;;5124998;27;27475;-62
2021/05/11 17:58:59;;;;;;;4.97;3.08;;;16.10;94.00;;;;;;5124822;27;27407;-63
2021/05/11 18:01:43;;;;;;;4.80;3.78;;;16.00;94.10;;;;;;5124259;27;27426;-62
2021/05/11 18:04:29;;;;;;;5.43;3.70;;;16.00;93.80;;;;;;5125185;27;27444;-62
2021/05/11 18:07:14;;;;;;;9.00;5.82;;;16.00;94.00;;;;;;5124788;27;27462;-62
2021/05/11 18:09:59;;;;;;;4.50;3.42;;;16.00;94.10;;;;;;5124986;27;27478;-62